Terminal Aerodrome Forecast
Issued by NWS

Home | Current Version | Previous Version | Text Only | Print | Product List | Glossary On
Versions: 1 2 3 4 5 6 7 8 9 10 11 12 13 14
000
FTUS46 KSTO 242300
TAFSCK
TAF
KSCK 242333Z 2500/2524 29012G21KT P6SM FEW200
     FM250600 28008KT P6SM SKC
     FM252200 29012KT P6SM SKC=

USA.gov is the U.S. government's official web portal to all federal, state and local government web resources and services.